createdAt,value
2018-07-14T00:02:59.453Z,63.48
2018-07-14T00:07:54.296Z,64.10
2018-07-14T00:12:48.866Z,62.01
2018-07-14T00:17:43.376Z,66.09
2018-07-14T00:22:38.888Z,66.87
2018-07-14T00:27:33.427Z,66.74
2018-07-14T00:32:27.984Z,69.34
2018-07-14T00:37:22.576Z,69.16
2018-07-14T00:42:17.085Z,71.36
2018-07-14T00:47:11.723Z,72.87
2018-07-14T00:52:06.253Z,71.81
2018-07-14T00:57:00.829Z,73.02
2018-07-14T01:01:55.384Z,73.29
2018-07-14T01:06:49.957Z,73.41
2018-07-14T01:11:44.486Z,75.12
2018-07-14T01:16:39.019Z,74.78
2018-07-14T01:21:33.522Z,73.29
2018-07-14T01:26:28.073Z,72.48
2018-07-14T01:31:22.620Z,74.16
2018-07-14T01:36:16.840Z,73.48
2018-07-14T01:41:11.364Z,73.64
2018-07-14T01:46:06.356Z,75.07
2018-07-14T01:51:00.876Z,76.56
2018-07-14T01:55:55.390Z,77.68
2018-07-14T02:00:49.908Z,77.03
2018-07-14T02:05:44.426Z,77.16
2018-07-14T02:10:38.968Z,77.75
2018-07-14T02:15:33.486Z,78.62
2018-07-14T02:20:28.000Z,78.67
2018-07-14T02:25:22.589Z,77.28
2018-07-14T02:30:17.115Z,77.05
2018-07-14T02:35:11.611Z,74.88
2018-07-14T02:40:06.132Z,75.51
2018-07-14T02:45:00.686Z,76.93
2018-07-14T02:49:55.237Z,76.29
2018-07-14T02:54:49.763Z,76.88
2018-07-14T02:59:44.419Z,76.64
2018-07-14T03:04:38.945Z,77.09
2018-07-14T03:09:33.453Z,78.42
2018-07-14T03:14:27.889Z,78.34
2018-07-14T03:19:22.477Z,77.14
2018-07-14T03:24:17.245Z,77.41
2018-07-14T03:29:11.764Z,78.63
2018-07-14T03:34:06.278Z,78.51
2018-07-14T03:39:00.801Z,78.75
2018-07-14T03:43:55.336Z,79.48
2018-07-14T03:48:49.842Z,79.69
2018-07-14T03:53:44.352Z,80.07
2018-07-14T03:58:38.831Z,80.40
2018-07-14T04:03:33.397Z,79.55
2018-07-14T04:08:27.869Z,79.77
2018-07-14T04:13:22.383Z,79.62
2018-07-14T04:18:16.910Z,79.41
2018-07-14T04:23:11.398Z,79.63
2018-07-14T04:28:05.926Z,78.88
2018-07-14T04:33:00.414Z,75.67
2018-07-14T04:37:55.043Z,68.53
2018-07-14T04:42:49.603Z,62.29
2018-07-14T04:47:44.144Z,59.60
2018-07-14T04:52:38.760Z,55.32
2018-07-14T04:57:33.365Z,51.96
2018-07-14T05:02:28.077Z,51.03
2018-07-14T05:07:22.669Z,48.89
2018-07-14T05:12:17.230Z,47.35
2018-07-14T05:17:11.714Z,46.99
2018-07-14T05:22:06.301Z,46.14
2018-07-14T05:27:00.961Z,45.25
2018-07-14T05:31:55.494Z,44.42
2018-07-14T05:36:50.012Z,44.17
2018-07-14T05:41:44.532Z,42.50
2018-07-14T05:46:39.135Z,42.81
2018-07-14T05:51:33.794Z,42.12
2018-07-14T05:56:28.392Z,43.49
2018-07-14T06:01:23.173Z,43.63
2018-07-14T06:06:17.859Z,42.34
2018-07-14T06:11:12.501Z,41.10
2018-07-14T06:16:07.041Z,40.45
2018-07-14T06:21:01.644Z,39.99
2018-07-14T06:25:56.292Z,42.21
2018-07-14T06:30:50.910Z,45.04
2018-07-14T06:35:45.490Z,45.47
2018-07-14T06:40:40.158Z,45.50
2018-07-14T06:45:34.930Z,44.78
2018-07-14T06:50:29.603Z,46.96
2018-07-14T06:55:24.640Z,48.12
2018-07-14T07:00:19.310Z,46.22
2018-07-14T07:05:14.701Z,46.60
2018-07-14T07:10:09.505Z,45.21
2018-07-14T07:15:03.837Z,43.19
2018-07-14T07:19:58.376Z,43.70
2018-07-14T07:24:53.065Z,44.28
2018-07-14T07:29:47.829Z,44.53
2018-07-14T07:34:42.834Z,43.42
2018-07-14T07:39:37.388Z,43.81
2018-07-14T07:44:32.147Z,44.33
2018-07-14T07:49:26.893Z,45.22
2018-07-14T07:54:21.601Z,46.89
2018-07-14T07:59:16.171Z,46.47
2018-07-14T08:04:10.814Z,46.24
2018-07-14T08:09:06.701Z,46.40
2018-07-14T08:14:01.330Z,43.43
2018-07-14T08:18:55.908Z,43.02
2018-07-14T08:23:50.607Z,42.64
2018-07-14T08:28:45.297Z,43.66
2018-07-14T08:33:40.073Z,41.65
2018-07-14T08:38:34.621Z,41.72
2018-07-14T08:43:30.496Z,42.39
2018-07-14T08:48:25.290Z,42.43
2018-07-14T08:53:19.955Z,40.82
2018-07-14T08:58:14.553Z,40.36
2018-07-14T09:03:08.856Z,41.75
2018-07-14T09:08:04.237Z,39.58
2018-07-14T09:12:59.565Z,40.21
2018-07-14T09:17:54.388Z,41.14
2018-07-14T09:22:48.988Z,39.91
2018-07-14T09:27:43.824Z,40.44
2018-07-14T09:32:38.428Z,40.77
2018-07-14T09:37:33.203Z,40.20
2018-07-14T09:42:27.774Z,39.35
2018-07-14T09:47:22.653Z,39.60
2018-07-14T09:52:17.446Z,38.27
2018-07-14T09:57:12.036Z,38.02
2018-07-14T10:02:06.711Z,34.59
2018-07-14T10:07:01.275Z,35.41
2018-07-14T10:11:55.965Z,36.50
2018-07-14T10:16:50.603Z,32.14
2018-07-14T10:21:45.262Z,33.97
2018-07-14T10:26:39.958Z,31.25
2018-07-14T10:31:34.564Z,32.29
2018-07-14T10:36:29.119Z,32.11
2018-07-14T10:41:24.758Z,30.96
2018-07-14T10:46:19.343Z,32.41
2018-07-14T10:51:14.529Z,31.02
2018-07-14T10:56:09.150Z,32.56
2018-07-14T11:01:05.557Z,32.97
2018-07-14T11:06:05.564Z,32.76
2018-07-14T11:11:00.358Z,34.12
2018-07-14T11:15:55.631Z,36.82
2018-07-14T11:20:49.892Z,38.30
2018-07-14T11:25:45.599Z,38.39
2018-07-14T11:30:40.189Z,38.34
2018-07-14T11:35:34.935Z,36.40
2018-07-14T11:40:29.684Z,37.37
2018-07-14T11:45:25.282Z,36.70
2018-07-14T11:50:19.796Z,36.06
2018-07-14T11:55:15.326Z,37.09
2018-07-14T12:00:09.687Z,35.17
2018-07-14T12:05:04.331Z,36.34
2018-07-14T12:09:58.907Z,32.75
2018-07-14T12:14:53.537Z,32.79
2018-07-14T12:19:48.057Z,30.28
2018-07-14T12:24:42.734Z,29.15
2018-07-14T12:29:37.273Z,27.94
2018-07-14T12:34:31.925Z,30.19
2018-07-14T12:39:26.444Z,32.00
2018-07-14T12:44:21.012Z,30.95
2018-07-14T12:49:15.238Z,27.77
2018-07-14T12:54:09.752Z,31.78
2018-07-14T12:59:04.300Z,29.83
2018-07-14T13:03:58.534Z,30.04
2018-07-14T13:08:53.031Z,30.12
2018-07-14T13:13:48.033Z,28.90
2018-07-14T13:18:42.726Z,28.21
2018-07-14T13:23:37.333Z,28.13
2018-07-14T13:28:31.812Z,27.96
2018-07-14T13:33:26.399Z,26.62
2018-07-14T13:38:20.928Z,26.46
2018-07-14T13:43:15.650Z,25.82
2018-07-14T13:48:10.220Z,26.08
2018-07-14T13:53:05.012Z,25.65
2018-07-14T13:57:59.866Z,25.13
2018-07-14T14:02:54.749Z,26.33
2018-07-14T14:07:49.338Z,26.03
2018-07-14T14:12:43.937Z,25.29
2018-07-14T14:17:38.461Z,25.89
2018-07-14T14:22:32.967Z,25.82
2018-07-14T14:27:27.476Z,24.93
2018-07-14T14:32:22.291Z,30.20
2018-07-14T14:37:16.931Z,28.29
2018-07-14T14:42:11.424Z,27.68
2018-07-14T14:47:06.495Z,29.09
2018-07-14T14:52:01.197Z,29.95
2018-07-14T14:56:55.763Z,28.66
2018-07-14T15:01:50.332Z,28.05
2018-07-14T15:06:44.856Z,26.21
2018-07-14T15:11:39.434Z,24.80
2018-07-14T15:16:34.104Z,24.00
2018-07-14T15:21:28.339Z,23.93
2018-07-14T15:26:23.458Z,23.48
2018-07-14T15:31:17.992Z,25.01
2018-07-14T15:36:12.805Z,22.89
2018-07-14T15:41:07.470Z,24.16
2018-07-14T15:46:02.212Z,27.91
2018-07-14T15:50:56.713Z,28.30
2018-07-14T15:55:51.268Z,29.55
2018-07-14T16:00:45.936Z,27.73
2018-07-14T16:05:41.150Z,28.22
2018-07-14T16:10:35.746Z,27.79
2018-07-14T16:15:30.321Z,27.45
2018-07-14T16:20:24.844Z,27.81
2018-07-14T16:25:19.437Z,27.75
2018-07-14T16:30:14.431Z,25.82
2018-07-14T16:35:09.311Z,27.39
2018-07-14T16:40:04.445Z,28.88
2018-07-14T16:44:59.264Z,28.94
2018-07-14T16:49:53.972Z,28.80
2018-07-14T16:54:48.235Z,29.04
2018-07-14T16:59:42.784Z,28.81
2018-07-14T17:04:36.979Z,28.51
2018-07-14T17:09:31.889Z,30.69
2018-07-14T17:14:26.999Z,30.20
2018-07-14T17:19:21.735Z,30.62
2018-07-14T17:24:16.227Z,29.84
2018-07-14T17:29:10.757Z,31.66
2018-07-14T17:34:05.526Z,32.64
2018-07-14T17:39:00.103Z,35.23
2018-07-14T17:43:54.686Z,35.55
2018-07-14T17:48:49.204Z,36.83
2018-07-14T17:53:43.768Z,37.17
2018-07-14T17:58:37.960Z,38.02
2018-07-14T18:03:32.551Z,39.32
2018-07-14T18:08:27.073Z,38.50
2018-07-14T18:13:21.577Z,39.35
2018-07-14T18:18:16.096Z,39.38
2018-07-14T18:23:10.624Z,39.93
2018-07-14T18:28:05.194Z,39.96
2018-07-14T18:32:59.722Z,40.03
2018-07-14T18:37:54.270Z,40.85
2018-07-14T18:42:48.788Z,42.72
2018-07-14T18:47:43.293Z,42.68
2018-07-14T18:52:38.132Z,42.06
2018-07-14T18:57:32.880Z,42.89
2018-07-14T19:02:27.464Z,43.49
2018-07-14T19:07:22.017Z,43.85
2018-07-14T19:12:16.533Z,43.27
2018-07-14T19:17:11.226Z,45.06
2018-07-14T19:22:05.804Z,44.76
2018-07-14T19:27:00.486Z,43.77
2018-07-14T19:31:55.191Z,44.05
2018-07-14T19:36:49.756Z,44.35
2018-07-14T19:41:44.280Z,44.62
2018-07-14T19:46:38.557Z,44.81
2018-07-14T19:51:33.115Z,45.04
2018-07-14T19:56:27.302Z,44.55
2018-07-14T20:01:21.863Z,45.63
2018-07-14T20:06:16.471Z,44.74
2018-07-14T20:11:10.956Z,46.27
2018-07-14T20:16:05.551Z,45.42
2018-07-14T20:21:00.131Z,46.68
2018-07-14T20:25:54.725Z,45.87
2018-07-14T20:30:49.320Z,46.56
2018-07-14T20:35:43.551Z,47.11
2018-07-14T20:40:38.216Z,48.17
2018-07-14T20:45:32.726Z,48.82
2018-07-14T20:50:27.473Z,48.27
2018-07-14T20:55:22.066Z,48.75
2018-07-14T21:00:16.679Z,48.88
2018-07-14T21:05:11.191Z,49.83
2018-07-14T21:10:05.761Z,49.29
2018-07-14T21:15:00.263Z,50.31
2018-07-14T21:19:54.832Z,51.16
2018-07-14T21:24:49.782Z,49.77
2018-07-14T21:29:44.401Z,50.55
2018-07-14T21:34:38.606Z,50.18
2018-07-14T21:39:33.208Z,48.92
2018-07-14T21:44:27.785Z,49.45
2018-07-14T21:49:22.693Z,48.62
2018-07-14T21:54:17.416Z,49.50
2018-07-14T21:59:12.025Z,50.73
2018-07-14T22:04:06.601Z,52.27
2018-07-14T22:09:01.097Z,53.62
2018-07-14T22:13:55.634Z,53.83
2018-07-14T22:18:50.458Z,54.10
2018-07-14T22:23:44.709Z,54.71
2018-07-14T22:28:39.221Z,55.02
2018-07-14T22:33:33.859Z,54.54
2018-07-14T22:38:28.407Z,55.08
2018-07-14T22:43:22.924Z,55.56
2018-07-14T22:48:17.456Z,55.27
2018-07-14T22:53:11.959Z,55.76
2018-07-14T22:58:06.569Z,55.97
2018-07-14T23:03:01.126Z,55.61
2018-07-14T23:07:55.661Z,54.78
2018-07-14T23:12:50.205Z,54.18
2018-07-14T23:17:45.081Z,55.47
2018-07-14T23:22:39.580Z,55.88
2018-07-14T23:27:34.121Z,55.36
2018-07-14T23:32:28.692Z,54.26
2018-07-14T23:37:23.365Z,54.59
2018-07-14T23:42:17.870Z,55.86
2018-07-14T23:47:12.580Z,56.43
2018-07-14T23:52:06.869Z,57.41
2018-07-14T23:57:01.157Z,59.98
